createdAt,value
2019-03-24T00:01:58.585Z,0.47
2019-03-24T00:04:29.670Z,0.80
2019-03-24T00:07:00.895Z,1.37
2019-03-24T00:09:31.913Z,1.95
2019-03-24T00:12:03.027Z,0.62
2019-03-24T00:14:34.106Z,0.75
2019-03-24T00:17:04.947Z,0.95
2019-03-24T00:19:35.703Z,0.33
2019-03-24T00:22:07.217Z,1.00
2019-03-24T00:24:38.611Z,0.82
2019-03-24T00:27:09.705Z,0.33
2019-03-24T00:29:40.740Z,0.78
2019-03-24T00:32:11.805Z,1.02
2019-03-24T00:34:42.906Z,0.20
2019-03-24T00:37:13.982Z,0.90
2019-03-24T00:39:45.019Z,0.75
2019-03-24T00:42:16.290Z,0.75
2019-03-24T00:44:47.282Z,0.30
2019-03-24T00:47:18.183Z,0.35
2019-03-24T00:49:49.061Z,0.68
2019-03-24T00:52:19.963Z,0.82
2019-03-24T00:54:51.285Z,1.40
2019-03-24T00:57:22.306Z,0.62
2019-03-24T00:59:53.328Z,0.30
2019-03-24T01:02:24.229Z,0.55
2019-03-24T01:04:55.442Z,0.55
2019-03-24T01:07:26.462Z,1.30
2019-03-24T01:09:57.530Z,0.80
2019-03-24T01:12:28.443Z,0.50
2019-03-24T01:15:01.571Z,0.20
2019-03-24T01:17:33.309Z,0.53
2019-03-24T01:20:04.621Z,0.62
2019-03-24T01:22:35.451Z,0.25
2019-03-24T01:25:06.570Z,0.90
2019-03-24T01:27:37.585Z,0.40
2019-03-24T01:30:09.530Z,0.47
2019-03-24T01:32:40.410Z,1.15
2019-03-24T01:35:11.488Z,0.20
2019-03-24T01:37:42.425Z,0.65
2019-03-24T01:40:13.595Z,0.33
2019-03-24T01:42:44.496Z,0.98
2019-03-24T01:45:15.601Z,0.90
2019-03-24T01:47:46.646Z,1.00
2019-03-24T01:50:17.504Z,0.70
2019-03-24T01:52:48.587Z,1.42
2019-03-24T01:55:19.461Z,1.05
2019-03-24T01:57:50.276Z,0.42
2019-03-24T02:00:21.352Z,1.47
2019-03-24T02:02:52.255Z,1.25
2019-03-24T02:05:23.535Z,1.25
2019-03-24T02:07:54.441Z,0.95
2019-03-24T02:10:27.085Z,0.40
2019-03-24T02:13:01.050Z,0.60
2019-03-24T02:15:32.005Z,1.65
2019-03-24T02:18:03.025Z,0.72
2019-03-24T02:20:34.078Z,1.02
2019-03-24T02:23:05.075Z,1.72
2019-03-24T02:25:36.228Z,1.30
2019-03-24T02:28:07.246Z,1.95
2019-03-24T02:30:38.096Z,1.20
2019-03-24T02:33:09.035Z,0.95
2019-03-24T02:35:40.190Z,0.40
2019-03-24T02:38:12.109Z,0.55
2019-03-24T02:40:46.006Z,0.42
2019-03-24T02:43:18.123Z,0.70
2019-03-24T02:45:49.088Z,0.88
2019-03-24T02:48:20.040Z,0.20
2019-03-24T02:50:51.092Z,0.82
2019-03-24T02:53:24.221Z,0.40
2019-03-24T02:55:55.289Z,0.95
2019-03-24T02:58:26.079Z,0.62
2019-03-24T03:00:57.151Z,0.70
2019-03-24T03:03:28.171Z,0.35
2019-03-24T03:05:59.456Z,0.53
2019-03-24T03:08:30.401Z,1.20
2019-03-24T03:11:01.845Z,0.78
2019-03-24T03:13:32.891Z,0.60
2019-03-24T03:16:03.743Z,0.42
2019-03-24T03:18:34.609Z,0.30
2019-03-24T03:21:05.593Z,1.10
2019-03-24T03:23:36.647Z,0.85
2019-03-24T03:26:07.651Z,1.85
2019-03-24T03:28:38.741Z,0.85
2019-03-24T03:31:09.688Z,0.50
2019-03-24T03:33:40.795Z,1.75
2019-03-24T03:36:11.612Z,0.50
2019-03-24T03:38:42.598Z,0.60
2019-03-24T03:41:13.536Z,0.98
2019-03-24T03:43:44.472Z,0.30
2019-03-24T03:46:16.072Z,0.72
2019-03-24T03:48:47.024Z,0.65
2019-03-24T03:51:17.891Z,1.57
2019-03-24T03:53:48.753Z,0.75
2019-03-24T03:56:19.687Z,1.52
2019-03-24T03:58:50.578Z,0.65
2019-03-24T04:01:21.576Z,1.50
2019-03-24T04:03:52.512Z,1.55
2019-03-24T04:06:23.337Z,0.95
2019-03-24T04:08:54.118Z,0.50
2019-03-24T04:11:24.995Z,1.42
2019-03-24T04:13:55.865Z,1.10
2019-03-24T04:16:26.953Z,1.20
2019-03-24T04:19:00.301Z,0.70
2019-03-24T04:21:31.326Z,2.70
2019-03-24T04:27:01.607Z,3.33
2019-03-24T04:29:32.888Z,4.20
2019-03-24T04:32:03.907Z,2.58
2019-03-24T04:34:36.645Z,3.08
2019-03-24T04:37:07.725Z,1.37
2019-03-24T04:39:38.459Z,3.12
2019-03-24T04:42:10.874Z,3.75
2019-03-24T04:44:42.637Z,5.80
2019-03-24T04:47:16.856Z,4.62
2019-03-24T04:49:50.047Z,3.08
2019-03-24T04:52:29.843Z,2.35
2019-03-24T04:59:22.931Z,2.33
2019-03-24T05:02:10.023Z,2.08
2019-03-24T05:05:08.216Z,3.00
2019-03-24T05:07:44.405Z,2.42
2019-03-24T05:10:27.029Z,1.30
2019-03-24T05:12:58.492Z,3.27
2019-03-24T05:15:31.079Z,2.55
2019-03-24T05:21:10.425Z,3.27
2019-03-24T05:23:41.547Z,4.40
2019-03-24T05:26:12.463Z,3.00
2019-03-24T05:28:43.637Z,2.37
2019-03-24T05:31:14.607Z,2.92
2019-03-24T05:33:45.523Z,5.25
2019-03-24T05:36:16.733Z,7.17
2019-03-24T05:38:47.701Z,5.72
2019-03-24T05:41:19.501Z,5.12
2019-03-24T05:43:50.706Z,8.20
2019-03-24T05:46:24.921Z,5.30
2019-03-24T05:48:58.623Z,3.70
2019-03-24T05:51:29.435Z,3.30
2019-03-24T05:54:00.325Z,5.67
2019-03-24T05:56:31.236Z,4.15
2019-03-24T05:59:02.460Z,3.47
2019-03-24T06:01:33.528Z,4.53
2019-03-24T06:04:04.474Z,3.80
2019-03-24T06:06:37.381Z,3.55
2019-03-24T06:09:15.333Z,3.58
2019-03-24T06:11:50.676Z,3.50
2019-03-24T06:14:24.732Z,4.15
2019-03-24T06:16:57.430Z,2.08
2019-03-24T06:19:28.610Z,4.53
2019-03-24T06:22:33.869Z,2.45
2019-03-24T06:25:02.101Z,3.40
2019-03-24T06:27:48.443Z,1.67
2019-03-24T06:30:22.210Z,2.15
2019-03-24T06:32:53.227Z,2.42
2019-03-24T06:35:24.060Z,2.40
2019-03-24T06:37:55.063Z,3.50
2019-03-24T06:40:25.996Z,3.15
2019-03-24T06:42:59.716Z,2.12
2019-03-24T06:45:37.621Z,4.72
2019-03-24T06:48:08.599Z,3.35
2019-03-24T06:50:39.596Z,5.92
2019-03-24T06:53:13.679Z,10.50
2019-03-24T06:55:48.400Z,9.75
2019-03-24T06:58:21.175Z,7.45
2019-03-24T07:00:52.148Z,5.72
2019-03-24T07:03:23.278Z,6.33
2019-03-24T07:05:56.733Z,6.58
2019-03-24T07:08:28.233Z,6.78
2019-03-24T07:10:59.273Z,5.08
2019-03-24T07:13:36.189Z,8.13
2019-03-24T07:16:09.741Z,7.42
2019-03-24T07:18:40.872Z,7.42
2019-03-24T07:21:12.146Z,10.30
2019-03-24T07:23:43.182Z,8.18
2019-03-24T07:26:14.922Z,7.60
2019-03-24T07:28:49.245Z,8.00
2019-03-24T07:31:23.173Z,6.30
2019-03-24T07:33:54.492Z,7.28
2019-03-24T07:36:25.622Z,9.20
2019-03-24T07:38:56.676Z,8.88
2019-03-24T07:41:28.130Z,7.95
2019-03-24T07:43:59.358Z,4.83
2019-03-24T07:46:30.599Z,8.53
2019-03-24T07:49:01.694Z,7.20
2019-03-24T07:51:32.887Z,7.72
2019-03-24T07:54:07.035Z,8.98
2019-03-24T07:56:40.062Z,7.12
2019-03-24T07:59:14.059Z,7.25
2019-03-24T08:01:45.041Z,12.68
2019-03-24T08:04:20.479Z,13.43
2019-03-24T08:06:51.503Z,13.28
2019-03-24T08:09:26.430Z,11.55
2019-03-24T08:12:00.141Z,8.08
2019-03-24T08:14:31.578Z,7.85
2019-03-24T08:17:02.601Z,9.08
2019-03-24T08:19:33.611Z,9.35
2019-03-24T08:22:09.774Z,8.00
2019-03-24T08:24:50.417Z,7.67
2019-03-24T08:27:24.114Z,6.97
2019-03-24T08:29:56.696Z,7.92
2019-03-24T08:32:27.579Z,7.15
2019-03-24T08:34:58.583Z,5.28
2019-03-24T08:37:32.109Z,6.53
2019-03-24T08:40:03.729Z,6.83
2019-03-24T08:42:34.824Z,7.05
2019-03-24T08:45:08.683Z,6.37
2019-03-24T08:47:42.567Z,5.33
2019-03-24T08:50:13.611Z,6.30
2019-03-24T08:52:44.734Z,7.25
2019-03-24T08:55:15.667Z,5.85
2019-03-24T08:57:49.823Z,7.22
2019-03-24T09:00:30.997Z,7.37
2019-03-24T09:03:02.090Z,6.80
2019-03-24T09:05:35.527Z,7.92
2019-03-24T09:08:07.013Z,6.03
2019-03-24T09:10:37.883Z,4.97
2019-03-24T09:13:09.059Z,4.83
2019-03-24T09:15:40.018Z,5.15
2019-03-24T09:18:14.294Z,7.17
2019-03-24T09:20:45.175Z,6.35
2019-03-24T09:23:16.830Z,4.67
2019-03-24T09:25:49.042Z,5.75
2019-03-24T09:28:21.798Z,7.50
2019-03-24T09:30:55.523Z,8.03
2019-03-24T09:33:26.489Z,6.42
2019-03-24T09:35:57.535Z,7.33
2019-03-24T09:38:29.796Z,7.58
2019-03-24T09:41:03.553Z,7.83
2019-03-24T09:43:34.538Z,8.45
2019-03-24T09:46:05.759Z,5.58
2019-03-24T09:48:40.657Z,5.87
2019-03-24T09:51:15.419Z,6.05
2019-03-24T09:53:47.829Z,6.20
2019-03-24T09:56:20.609Z,7.60
2019-03-24T09:58:51.928Z,5.20
2019-03-24T10:01:27.040Z,4.55
2019-03-24T10:04:02.398Z,4.15
2019-03-24T10:06:36.146Z,5.85
2019-03-24T10:09:08.166Z,5.78
2019-03-24T10:11:42.136Z,3.25
2019-03-24T10:14:13.189Z,5.28
2019-03-24T10:16:44.495Z,4.05
2019-03-24T10:19:18.709Z,3.67
2019-03-24T10:21:50.222Z,4.12
2019-03-24T10:24:21.434Z,3.45
2019-03-24T10:26:55.320Z,3.08
2019-03-24T10:29:26.314Z,3.05
2019-03-24T10:31:57.374Z,3.45
2019-03-24T10:34:35.160Z,2.30
2019-03-24T10:37:07.306Z,3.95
2019-03-24T10:39:38.588Z,2.90
2019-03-24T10:42:09.535Z,2.30
2019-03-24T10:44:44.422Z,1.72
2019-03-24T10:47:15.530Z,0.68
2019-03-24T10:49:46.539Z,1.55
2019-03-24T10:52:21.169Z,1.20
2019-03-24T10:54:54.219Z,1.22
2019-03-24T10:57:25.097Z,1.17
2019-03-24T10:59:56.174Z,1.12
2019-03-24T11:02:33.118Z,1.12
2019-03-24T11:05:04.055Z,1.00
2019-03-24T11:07:37.008Z,0.98
2019-03-24T11:10:13.159Z,2.17
2019-03-24T11:12:44.004Z,0.88
2019-03-24T11:15:15.594Z,0.78
2019-03-24T11:17:47.760Z,0.60
2019-03-24T11:20:18.880Z,1.22
2019-03-24T11:22:49.742Z,1.42
2019-03-24T11:25:22.396Z,0.53
2019-03-24T11:27:53.940Z,0.82
2019-03-24T11:30:25.028Z,0.80
2019-03-24T11:32:57.172Z,1.15
2019-03-24T11:35:28.254Z,0.85
2019-03-24T11:37:59.385Z,0.60
2019-03-24T11:40:30.465Z,0.80
2019-03-24T11:43:01.892Z,1.75
2019-03-24T11:45:33.480Z,1.22
2019-03-24T11:48:06.986Z,0.45
2019-03-24T11:50:37.915Z,0.60
2019-03-24T11:53:10.908Z,1.22
2019-03-24T11:55:42.046Z,0.50
2019-03-24T11:58:15.300Z,0.47
2019-03-24T12:00:46.397Z,0.20
2019-03-24T12:03:18.532Z,0.20
2019-03-24T12:05:49.499Z,0.28
2019-03-24T12:08:20.557Z,0.20
2019-03-24T12:10:51.577Z,0.40
2019-03-24T12:13:22.686Z,0.10
2019-03-24T12:15:53.607Z,0.10
2019-03-24T12:18:30.282Z,0.37
2019-03-24T12:21:01.877Z,0.20
2019-03-24T12:23:32.991Z,0.20
2019-03-24T12:26:04.167Z,0.20
2019-03-24T12:28:37.455Z,0.13
2019-03-24T12:31:09.981Z,0.40
2019-03-24T12:33:41.378Z,1.22
2019-03-24T12:36:12.491Z,0.20
2019-03-24T12:38:49.473Z,0.53
2019-03-24T12:41:22.810Z,0.75
2019-03-24T12:43:53.599Z,0.72
2019-03-24T12:46:24.279Z,2.55
2019-03-24T12:48:55.091Z,1.00
2019-03-24T12:51:25.909Z,1.57
2019-03-24T12:53:57.035Z,0.40
2019-03-24T12:56:27.725Z,0.40
2019-03-24T12:58:59.433Z,0.65
2019-03-24T13:01:33.015Z,0.28
2019-03-24T13:04:03.759Z,0.10
2019-03-24T13:06:36.165Z,0.55
2019-03-24T13:09:08.306Z,0.10
2019-03-24T13:11:39.483Z,0.10
2019-03-24T13:14:11.363Z,0.23
2019-03-24T13:16:45.198Z,0.10
2019-03-24T13:19:15.920Z,0.10
2019-03-24T13:21:47.403Z,0.10
2019-03-24T13:24:18.091Z,0.30
2019-03-24T13:26:50.543Z,0.23
2019-03-24T13:29:22.582Z,0.10
2019-03-24T13:31:56.019Z,0.20
2019-03-24T13:34:29.617Z,0.20
2019-03-24T13:37:00.674Z,0.10
2019-03-24T13:39:33.062Z,0.10
2019-03-24T13:42:04.014Z,0.10
2019-03-24T13:44:34.811Z,0.03
2019-03-24T13:47:05.664Z,0.00
2019-03-24T13:49:36.471Z,0.00
2019-03-24T13:52:07.165Z,0.00
2019-03-24T13:54:37.895Z,0.00
2019-03-24T13:57:11.792Z,0.00
2019-03-24T13:59:42.551Z,0.10
2019-03-24T14:02:13.230Z,0.10
2019-03-24T14:04:43.967Z,0.00
2019-03-24T14:07:16.983Z,0.00
2019-03-24T14:09:50.480Z,0.10
2019-03-24T14:12:21.242Z,0.10
2019-03-24T14:14:52.218Z,0.10
2019-03-24T14:17:25.900Z,0.33
2019-03-24T14:19:57.920Z,0.10
2019-03-24T14:22:28.790Z,0.10
2019-03-24T14:24:59.486Z,0.10
2019-03-24T14:27:32.704Z,0.10
2019-03-24T14:30:03.572Z,0.17
2019-03-24T14:32:38.313Z,0.10
2019-03-24T14:35:09.376Z,0.10
2019-03-24T14:37:40.837Z,0.10
2019-03-24T14:40:11.990Z,0.00
2019-03-24T14:42:42.782Z,0.10
2019-03-24T14:45:13.958Z,0.10
2019-03-24T14:47:44.820Z,0.20
2019-03-24T14:50:15.882Z,0.10
2019-03-24T14:52:50.776Z,0.10
2019-03-24T14:55:22.326Z,0.10
2019-03-24T14:57:54.798Z,0.10
2019-03-24T15:00:36.032Z,0.10
2019-03-24T15:03:07.301Z,0.10
2019-03-24T15:05:38.394Z,0.20
2019-03-24T15:08:11.363Z,0.10
2019-03-24T15:10:47.483Z,0.00
2019-03-24T15:13:18.645Z,0.10
2019-03-24T15:15:49.436Z,0.00
2019-03-24T15:18:20.422Z,0.00
2019-03-24T15:21:04.910Z,0.00
2019-03-24T15:23:32.761Z,0.00
2019-03-24T15:26:05.022Z,0.00
2019-03-24T15:28:36.434Z,0.00
2019-03-24T15:31:07.698Z,0.00
2019-03-24T15:33:38.932Z,0.05
2019-03-24T15:36:09.984Z,0.00
2019-03-24T15:38:41.208Z,0.10
2019-03-24T15:41:18.379Z,0.10
2019-03-24T15:43:49.663Z,0.10
2019-03-24T15:46:20.925Z,0.20
2019-03-24T15:48:51.854Z,0.10
2019-03-24T15:51:22.998Z,0.10
2019-03-24T15:53:55.196Z,0.10
2019-03-24T15:56:26.539Z,0.42
2019-03-24T15:59:02.844Z,0.23
2019-03-24T16:01:33.952Z,0.20
2019-03-24T16:04:04.887Z,0.30
2019-03-24T16:06:35.874Z,0.55
2019-03-24T16:09:09.929Z,0.20
2019-03-24T16:11:41.131Z,0.20
2019-03-24T16:14:12.095Z,0.20
2019-03-24T16:16:43.033Z,0.47
2019-03-24T16:19:13.872Z,0.20
2019-03-24T16:21:44.773Z,0.50
2019-03-24T16:24:15.935Z,2.92
2019-03-24T16:26:47.952Z,0.20
2019-03-24T16:29:18.788Z,0.78
2019-03-24T16:31:49.777Z,0.13
2019-03-24T16:34:23.502Z,0.37
2019-03-24T16:36:54.398Z,0.28
2019-03-24T16:39:25.341Z,0.20
2019-03-24T16:42:00.583Z,0.10
2019-03-24T16:44:31.409Z,0.10
2019-03-24T16:47:05.292Z,0.10
2019-03-24T16:49:36.310Z,0.20
2019-03-24T16:52:08.679Z,0.10
2019-03-24T16:54:39.755Z,0.10
2019-03-24T16:57:10.627Z,0.10
2019-03-24T16:59:42.016Z,0.10
2019-03-24T17:02:18.577Z,0.10
2019-03-24T17:04:52.069Z,0.10
2019-03-24T17:07:23.047Z,0.10
2019-03-24T17:09:56.080Z,0.10
2019-03-24T17:12:36.991Z,0.10
2019-03-24T17:15:10.563Z,0.10
2019-03-24T17:17:41.769Z,0.10
2019-03-24T17:20:16.584Z,0.20
2019-03-24T17:22:52.063Z,0.00
2019-03-24T17:25:23.383Z,0.10
2019-03-24T17:28:01.255Z,0.10
2019-03-24T17:30:33.698Z,0.10
2019-03-24T17:33:04.878Z,0.20
2019-03-24T17:35:35.960Z,0.10
2019-03-24T17:38:06.991Z,0.10
2019-03-24T17:40:39.084Z,0.10
2019-03-24T17:43:12.233Z,0.10
2019-03-24T17:45:44.270Z,0.10
2019-03-24T17:48:16.103Z,0.10
2019-03-24T17:50:47.150Z,0.10
2019-03-24T17:53:18.035Z,0.40
2019-03-24T17:55:49.073Z,0.57
2019-03-24T17:58:21.297Z,0.30
2019-03-24T18:00:56.657Z,0.13
2019-03-24T18:03:32.909Z,0.10
2019-03-24T18:06:04.052Z,0.10
2019-03-24T18:08:35.337Z,0.10
2019-03-24T18:11:07.750Z,0.10
2019-03-24T18:13:39.721Z,1.10
2019-03-24T18:16:20.281Z,0.10
2019-03-24T18:18:46.434Z,0.10
2019-03-24T18:21:19.207Z,0.13
2019-03-24T18:23:51.535Z,0.15
2019-03-24T18:26:28.360Z,0.10
2019-03-24T18:29:01.992Z,0.20
2019-03-24T18:31:36.100Z,0.10
2019-03-24T18:34:08.494Z,0.10
2019-03-24T18:36:40.855Z,0.20
2019-03-24T18:39:16.225Z,0.10
2019-03-24T18:41:47.625Z,0.10
2019-03-24T18:44:20.438Z,0.10
2019-03-24T18:47:00.375Z,0.10
2019-03-24T18:49:35.434Z,0.23
2019-03-24T18:52:09.961Z,0.10
2019-03-24T18:54:40.921Z,0.10
2019-03-24T18:57:12.237Z,0.10
2019-03-24T18:59:43.185Z,0.10
2019-03-24T19:02:14.461Z,0.10
2019-03-24T19:04:49.042Z,0.30
2019-03-24T19:07:20.316Z,0.10
2019-03-24T19:09:51.204Z,0.10
2019-03-24T19:12:22.089Z,0.17
2019-03-24T19:14:53.024Z,0.10
2019-03-24T19:17:23.917Z,0.10
2019-03-24T19:19:54.952Z,0.10
2019-03-24T19:22:33.479Z,0.10
2019-03-24T19:24:58.745Z,0.40
2019-03-24T19:27:29.502Z,0.10
2019-03-24T19:30:00.390Z,0.10
2019-03-24T19:32:31.165Z,0.20
2019-03-24T19:35:02.170Z,0.10
2019-03-24T19:37:33.448Z,0.10
2019-03-24T19:40:04.497Z,0.10
2019-03-24T19:42:35.371Z,0.30
2019-03-24T19:45:06.352Z,0.30
2019-03-24T19:47:38.831Z,0.10
2019-03-24T19:50:09.866Z,0.10
2019-03-24T19:52:44.867Z,0.40
2019-03-24T19:55:14.306Z,0.10
2019-03-24T19:57:47.361Z,0.10
2019-03-24T20:00:18.421Z,0.10
2019-03-24T20:02:49.260Z,0.10
2019-03-24T20:05:20.264Z,0.25
2019-03-24T20:07:51.178Z,0.62
2019-03-24T20:10:22.004Z,0.10
2019-03-24T20:12:53.197Z,0.20
2019-03-24T20:15:31.328Z,0.20
2019-03-24T20:18:05.300Z,0.10
2019-03-24T20:20:36.277Z,0.10
2019-03-24T20:23:07.363Z,0.10
2019-03-24T20:25:39.994Z,0.10
2019-03-24T20:28:12.952Z,0.10
2019-03-24T20:30:47.099Z,0.10
2019-03-24T20:33:20.903Z,0.30
2019-03-24T20:35:51.752Z,0.10
2019-03-24T20:38:22.528Z,0.10
2019-03-24T20:40:53.374Z,0.10
2019-03-24T20:43:24.164Z,0.15
2019-03-24T20:45:59.411Z,0.10
2019-03-24T20:48:30.228Z,0.13
2019-03-24T20:51:01.119Z,0.10
2019-03-24T20:53:32.303Z,0.10
2019-03-24T20:56:03.614Z,0.85
2019-03-24T20:58:36.349Z,0.25
2019-03-24T21:01:07.460Z,0.25
2019-03-24T21:03:38.274Z,0.37
2019-03-24T21:06:09.325Z,0.10
2019-03-24T21:08:40.182Z,0.10
2019-03-24T21:11:12.289Z,0.30
2019-03-24T21:13:49.426Z,0.20
2019-03-24T21:16:30.095Z,0.10
2019-03-24T21:19:08.721Z,0.37
2019-03-24T21:21:42.561Z,0.10
2019-03-24T21:24:13.413Z,0.20
2019-03-24T21:26:44.242Z,0.37
2019-03-24T21:29:16.466Z,0.10
2019-03-24T21:31:47.502Z,0.33
2019-03-24T21:34:18.857Z,0.57
2019-03-24T21:36:49.791Z,0.10
2019-03-24T21:39:21.257Z,0.15
2019-03-24T21:41:52.420Z,0.23
2019-03-24T21:44:23.207Z,1.00
2019-03-24T21:46:54.187Z,0.10
2019-03-24T21:49:25.146Z,0.30
2019-03-24T21:51:56.220Z,0.10
2019-03-24T21:54:28.142Z,0.42
2019-03-24T21:56:59.147Z,0.93
2019-03-24T21:59:31.955Z,0.10
2019-03-24T22:02:02.970Z,0.10
2019-03-24T22:04:34.413Z,0.30
2019-03-24T22:07:06.783Z,0.10
2019-03-24T22:09:37.656Z,0.50
2019-03-24T22:12:11.088Z,0.25
2019-03-24T22:14:41.889Z,0.10
2019-03-24T22:17:12.726Z,0.10
2019-03-24T22:19:43.492Z,0.10
2019-03-24T22:22:14.571Z,0.10
2019-03-24T22:24:45.552Z,0.00
2019-03-24T22:27:16.376Z,0.10
2019-03-24T22:29:47.248Z,0.10
2019-03-24T22:32:20.524Z,0.30
2019-03-24T22:34:51.247Z,0.10
2019-03-24T22:37:23.099Z,0.00
2019-03-24T22:39:53.821Z,0.95
2019-03-24T22:42:24.683Z,0.00
2019-03-24T22:44:55.559Z,0.00
2019-03-24T22:47:26.414Z,0.10
2019-03-24T22:49:57.469Z,0.20
2019-03-24T22:52:28.395Z,0.00
2019-03-24T22:54:59.233Z,0.10
2019-03-24T22:57:32.571Z,0.10
2019-03-24T23:00:02.467Z,0.10
2019-03-24T23:02:35.033Z,0.10
2019-03-24T23:05:07.387Z,0.10
2019-03-24T23:07:38.179Z,0.10
2019-03-24T23:10:09.083Z,0.10
2019-03-24T23:12:41.247Z,0.10
2019-03-24T23:15:13.269Z,0.10
2019-03-24T23:17:44.187Z,0.10
2019-03-24T23:20:14.965Z,0.10
2019-03-24T23:22:45.776Z,0.10
2019-03-24T23:25:19.345Z,0.10
2019-03-24T23:27:50.182Z,0.65
2019-03-24T23:30:21.235Z,0.17
2019-03-24T23:32:52.243Z,0.10
2019-03-24T23:35:23.190Z,0.50
2019-03-24T23:37:55.208Z,0.10
2019-03-24T23:40:26.045Z,0.10
2019-03-24T23:42:56.867Z,0.10
2019-03-24T23:45:27.660Z,0.10
2019-03-24T23:47:58.549Z,0.20
2019-03-24T23:50:29.352Z,0.35
2019-03-24T23:53:03.333Z,0.10
2019-03-24T23:55:34.251Z,0.20
2019-03-24T23:58:05.034Z,1.25
